sensor_id;sensor_type;location;lat;lon;timestamp;P1;durP1;ratioP1;P2;durP2;ratioP2
23266;SDS011;11802;53.160;8.214;2023-05-27T00:01:45;14.10;;;4.33;;
23266;SDS011;11802;53.160;8.214;2023-05-27T00:04:11;22.17;;;4.57;;
23266;SDS011;11802;53.160;8.214;2023-05-27T00:06:39;18.77;;;4.60;;
23266;SDS011;11802;53.160;8.214;2023-05-27T00:09:04;16.40;;;4.73;;
23266;SDS011;11802;53.160;8.214;2023-05-27T00:11:30;15.83;;;4.10;;
23266;SDS011;11802;53.160;8.214;2023-05-27T00:13:55;19.13;;;4.17;;
23266;SDS011;11802;53.160;8.214;2023-05-27T00:16:21;14.67;;;4.43;;
23266;SDS011;11802;53.160;8.214;2023-05-27T00:18:47;17.10;;;4.83;;
23266;SDS011;11802;53.160;8.214;2023-05-27T00:21:13;13.83;;;3.93;;
23266;SDS011;11802;53.160;8.214;2023-05-27T00:23:39;15.73;;;3.90;;
23266;SDS011;11802;53.160;8.214;2023-05-27T00:26:09;15.77;;;4.20;;
23266;SDS011;11802;53.160;8.214;2023-05-27T00:28:35;18.20;;;5.13;;
23266;SDS011;11802;53.160;8.214;2023-05-27T00:31:00;18.00;;;4.90;;
23266;SDS011;11802;53.160;8.214;2023-05-27T00:33:27;17.93;;;4.37;;
23266;SDS011;11802;53.160;8.214;2023-05-27T00:35:52;13.50;;;4.53;;
23266;SDS011;11802;53.160;8.214;2023-05-27T00:38:18;16.50;;;4.13;;
23266;SDS011;11802;53.160;8.214;2023-05-27T00:40:44;12.13;;;4.10;;
23266;SDS011;11802;53.160;8.214;2023-05-27T00:43:10;15.13;;;4.60;;
23266;SDS011;11802;53.160;8.214;2023-05-27T00:45:36;19.93;;;4.53;;
23266;SDS011;11802;53.160;8.214;2023-05-27T00:48:02;21.33;;;4.80;;
23266;SDS011;11802;53.160;8.214;2023-05-27T00:50:28;18.43;;;4.47;;
23266;SDS011;11802;53.160;8.214;2023-05-27T00:52:54;16.37;;;4.93;;
23266;SDS011;11802;53.160;8.214;2023-05-27T00:55:23;17.97;;;5.13;;
23266;SDS011;11802;53.160;8.214;2023-05-27T00:57:49;16.57;;;4.43;;
23266;SDS011;11802;53.160;8.214;2023-05-27T01:00:19;18.37;;;4.57;;
23266;SDS011;11802;53.160;8.214;2023-05-27T01:02:45;20.10;;;5.00;;
23266;SDS011;11802;53.160;8.214;2023-05-27T01:05:12;18.80;;;4.73;;
23266;SDS011;11802;53.160;8.214;2023-05-27T01:10:29;20.40;;;5.30;;
23266;SDS011;11802;53.160;8.214;2023-05-27T01:12:59;16.23;;;4.93;;
23266;SDS011;11802;53.160;8.214;2023-05-27T01:15:29;15.47;;;5.43;;
23266;SDS011;11802;53.160;8.214;2023-05-27T01:17:57;17.97;;;4.63;;
23266;SDS011;11802;53.160;8.214;2023-05-27T01:20:27;14.83;;;4.40;;
23266;SDS011;11802;53.160;8.214;2023-05-27T01:22:54;18.67;;;5.30;;
23266;SDS011;11802;53.160;8.214;2023-05-27T01:25:22;21.07;;;5.80;;
23266;SDS011;11802;53.160;8.214;2023-05-27T01:27:48;21.90;;;5.30;;
23266;SDS011;11802;53.160;8.214;2023-05-27T01:30:14;17.33;;;4.40;;
23266;SDS011;11802;53.160;8.214;2023-05-27T01:32:52;16.40;;;4.77;;
23266;SDS011;11802;53.160;8.214;2023-05-27T01:35:52;14.30;;;4.70;;
23266;SDS011;11802;53.160;8.214;2023-05-27T01:38:21;20.03;;;4.80;;
23266;SDS011;11802;53.160;8.214;2023-05-27T01:40:51;15.97;;;4.10;;
23266;SDS011;11802;53.160;8.214;2023-05-27T01:43:18;17.67;;;4.43;;
23266;SDS011;11802;53.160;8.214;2023-05-27T01:45:44;14.43;;;4.43;;
23266;SDS011;11802;53.160;8.214;2023-05-27T01:48:10;18.90;;;4.30;;
23266;SDS011;11802;53.160;8.214;2023-05-27T01:50:36;17.60;;;4.53;;
23266;SDS011;11802;53.160;8.214;2023-05-27T01:53:02;17.57;;;4.10;;
23266;SDS011;11802;53.160;8.214;2023-05-27T01:55:28;17.87;;;4.13;;
23266;SDS011;11802;53.160;8.214;2023-05-27T01:57:55;15.47;;;4.53;;
23266;SDS011;11802;53.160;8.214;2023-05-27T02:00:22;17.60;;;4.33;;
23266;SDS011;11802;53.160;8.214;2023-05-27T02:02:48;17.47;;;4.30;;
23266;SDS011;11802;53.160;8.214;2023-05-27T02:05:13;20.97;;;4.47;;
23266;SDS011;11802;53.160;8.214;2023-05-27T02:07:39;17.00;;;4.53;;
23266;SDS011;11802;53.160;8.214;2023-05-27T02:10:04;16.03;;;4.10;;
23266;SDS011;11802;53.160;8.214;2023-05-27T02:12:30;18.97;;;4.63;;
23266;SDS011;11802;53.160;8.214;2023-05-27T02:14:56;16.37;;;5.03;;
23266;SDS011;11802;53.160;8.214;2023-05-27T02:17:21;18.57;;;4.57;;
23266;SDS011;11802;53.160;8.214;2023-05-27T02:19:49;16.10;;;4.13;;
23266;SDS011;11802;53.160;8.214;2023-05-27T02:22:15;18.70;;;4.47;;
23266;SDS011;11802;53.160;8.214;2023-05-27T02:24:40;23.07;;;4.73;;
23266;SDS011;11802;53.160;8.214;2023-05-27T02:27:06;18.40;;;4.67;;
23266;SDS011;11802;53.160;8.214;2023-05-27T02:29:31;16.10;;;4.60;;
23266;SDS011;11802;53.160;8.214;2023-05-27T02:31:57;21.67;;;4.63;;
23266;SDS011;11802;53.160;8.214;2023-05-27T02:34:23;25.17;;;5.20;;
23266;SDS011;11802;53.160;8.214;2023-05-27T02:36:48;19.30;;;5.33;;
23266;SDS011;11802;53.160;8.214;2023-05-27T02:39:14;12.50;;;4.23;;
23266;SDS011;11802;53.160;8.214;2023-05-27T02:41:39;16.77;;;5.00;;
23266;SDS011;11802;53.160;8.214;2023-05-27T02:44:05;21.30;;;4.27;;
23266;SDS011;11802;53.160;8.214;2023-05-27T02:46:30;18.47;;;4.77;;
23266;SDS011;11802;53.160;8.214;2023-05-27T02:48:56;25.33;;;5.27;;
23266;SDS011;11802;53.160;8.214;2023-05-27T02:51:22;15.87;;;4.20;;
23266;SDS011;11802;53.160;8.214;2023-05-27T02:53:47;17.33;;;4.60;;
23266;SDS011;11802;53.160;8.214;2023-05-27T02:56:14;27.37;;;5.23;;
23266;SDS011;11802;53.160;8.214;2023-05-27T02:58:39;23.33;;;4.73;;
23266;SDS011;11802;53.160;8.214;2023-05-27T03:01:05;16.20;;;4.87;;
23266;SDS011;11802;53.160;8.214;2023-05-27T03:03:30;20.47;;;5.00;;
23266;SDS011;11802;53.160;8.214;2023-05-27T03:05:56;23.97;;;5.13;;
23266;SDS011;11802;53.160;8.214;2023-05-27T03:08:22;16.20;;;4.70;;
23266;SDS011;11802;53.160;8.214;2023-05-27T03:10:47;22.87;;;5.43;;
23266;SDS011;11802;53.160;8.214;2023-05-27T03:13:13;19.40;;;4.87;;
23266;SDS011;11802;53.160;8.214;2023-05-27T03:15:38;22.97;;;4.80;;
23266;SDS011;11802;53.160;8.214;2023-05-27T03:18:04;19.27;;;4.63;;
23266;SDS011;11802;53.160;8.214;2023-05-27T03:20:30;21.30;;;5.57;;
23266;SDS011;11802;53.160;8.214;2023-05-27T03:22:55;23.37;;;5.30;;
23266;SDS011;11802;53.160;8.214;2023-05-27T03:25:21;16.93;;;5.23;;
23266;SDS011;11802;53.160;8.214;2023-05-27T03:27:47;23.63;;;5.23;;
23266;SDS011;11802;53.160;8.214;2023-05-27T03:30:12;22.80;;;5.40;;
23266;SDS011;11802;53.160;8.214;2023-05-27T03:32:38;19.43;;;5.90;;
23266;SDS011;11802;53.160;8.214;2023-05-27T03:35:04;15.30;;;4.93;;
23266;SDS011;11802;53.160;8.214;2023-05-27T03:37:29;16.60;;;5.73;;
23266;SDS011;11802;53.160;8.214;2023-05-27T03:39:55;19.50;;;5.50;;
23266;SDS011;11802;53.160;8.214;2023-05-27T03:42:21;15.00;;;4.93;;
23266;SDS011;11802;53.160;8.214;2023-05-27T03:44:46;16.60;;;5.10;;
23266;SDS011;11802;53.160;8.214;2023-05-27T03:47:12;28.87;;;5.77;;
23266;SDS011;11802;53.160;8.214;2023-05-27T03:49:38;22.43;;;5.50;;
23266;SDS011;11802;53.160;8.214;2023-05-27T03:52:03;20.87;;;5.97;;
23266;SDS011;11802;53.160;8.214;2023-05-27T03:54:29;20.87;;;5.60;;
23266;SDS011;11802;53.160;8.214;2023-05-27T03:56:55;18.33;;;5.03;;
23266;SDS011;11802;53.160;8.214;2023-05-27T03:59:21;21.23;;;4.70;;
23266;SDS011;11802;53.160;8.214;2023-05-27T04:01:46;21.00;;;5.43;;
23266;SDS011;11802;53.160;8.214;2023-05-27T04:04:12;17.27;;;5.07;;
23266;SDS011;11802;53.160;8.214;2023-05-27T04:06:38;18.50;;;4.83;;
23266;SDS011;11802;53.160;8.214;2023-05-27T04:09:04;19.40;;;4.90;;
23266;SDS011;11802;53.160;8.214;2023-05-27T04:11:30;17.13;;;5.77;;
23266;SDS011;11802;53.160;8.214;2023-05-27T04:13:55;15.10;;;4.53;;
23266;SDS011;11802;53.160;8.214;2023-05-27T04:16:21;20.50;;;5.03;;
23266;SDS011;11802;53.160;8.214;2023-05-27T04:18:49;14.63;;;4.37;;
23266;SDS011;11802;53.160;8.214;2023-05-27T04:21:16;14.90;;;4.50;;
23266;SDS011;11802;53.160;8.214;2023-05-27T04:23:42;20.70;;;4.40;;
23266;SDS011;11802;53.160;8.214;2023-05-27T04:26:07;16.97;;;4.47;;
23266;SDS011;11802;53.160;8.214;2023-05-27T04:28:33;18.53;;;4.40;;
23266;SDS011;11802;53.160;8.214;2023-05-27T04:31:04;18.23;;;4.80;;
23266;SDS011;11802;53.160;8.214;2023-05-27T04:33:29;16.23;;;4.57;;
23266;SDS011;11802;53.160;8.214;2023-05-27T04:35:55;17.53;;;3.73;;
23266;SDS011;11802;53.160;8.214;2023-05-27T04:38:21;16.47;;;4.67;;
23266;SDS011;11802;53.160;8.214;2023-05-27T04:40:48;14.37;;;4.03;;
23266;SDS011;11802;53.160;8.214;2023-05-27T04:43:21;16.00;;;4.47;;
23266;SDS011;11802;53.160;8.214;2023-05-27T04:45:48;13.60;;;4.43;;
23266;SDS011;11802;53.160;8.214;2023-05-27T04:48:14;18.13;;;4.72;;
23266;SDS011;11802;53.160;8.214;2023-05-27T04:50:40;14.05;;;4.72;;
23266;SDS011;11802;53.160;8.214;2023-05-27T04:53:06;12.40;;;3.63;;
23266;SDS011;11802;53.160;8.214;2023-05-27T04:55:32;17.65;;;4.32;;
23266;SDS011;11802;53.160;8.214;2023-05-27T04:57:58;17.77;;;4.05;;
23266;SDS011;11802;53.160;8.214;2023-05-27T05:00:24;13.05;;;3.22;;
23266;SDS011;11802;53.160;8.214;2023-05-27T05:03:01;12.88;;;3.78;;
23266;SDS011;11802;53.160;8.214;2023-05-27T05:05:27;17.83;;;4.38;;
23266;SDS011;11802;53.160;8.214;2023-05-27T05:07:53;17.33;;;4.15;;
23266;SDS011;11802;53.160;8.214;2023-05-27T05:10:19;16.75;;;3.53;;
23266;SDS011;11802;53.160;8.214;2023-05-27T05:12:45;15.20;;;3.88;;
23266;SDS011;11802;53.160;8.214;2023-05-27T05:15:10;14.80;;;3.60;;
23266;SDS011;11802;53.160;8.214;2023-05-27T05:17:37;19.65;;;4.35;;
23266;SDS011;11802;53.160;8.214;2023-05-27T05:20:03;14.85;;;3.50;;
23266;SDS011;11802;53.160;8.214;2023-05-27T05:22:29;18.60;;;3.63;;
23266;SDS011;11802;53.160;8.214;2023-05-27T05:24:55;14.38;;;4.07;;
23266;SDS011;11802;53.160;8.214;2023-05-27T05:27:20;15.27;;;3.70;;
23266;SDS011;11802;53.160;8.214;2023-05-27T05:29:46;13.32;;;3.83;;
23266;SDS011;11802;53.160;8.214;2023-05-27T05:32:11;13.05;;;3.95;;
23266;SDS011;11802;53.160;8.214;2023-05-27T05:34:38;19.02;;;4.03;;
23266;SDS011;11802;53.160;8.214;2023-05-27T05:37:04;14.27;;;3.50;;
23266;SDS011;11802;53.160;8.214;2023-05-27T05:39:29;16.58;;;3.80;;
23266;SDS011;11802;53.160;8.214;2023-05-27T05:41:55;14.05;;;3.40;;
23266;SDS011;11802;53.160;8.214;2023-05-27T05:44:22;10.90;;;3.20;;
23266;SDS011;11802;53.160;8.214;2023-05-27T05:46:48;14.95;;;3.83;;
23266;SDS011;11802;53.160;8.214;2023-05-27T05:49:14;17.50;;;3.70;;
23266;SDS011;11802;53.160;8.214;2023-05-27T05:51:40;13.68;;;3.55;;
23266;SDS011;11802;53.160;8.214;2023-05-27T05:54:05;14.30;;;3.95;;
23266;SDS011;11802;53.160;8.214;2023-05-27T05:56:31;14.23;;;4.07;;
23266;SDS011;11802;53.160;8.214;2023-05-27T05:58:58;13.35;;;3.60;;
23266;SDS011;11802;53.160;8.214;2023-05-27T06:01:23;11.73;;;3.25;;
23266;SDS011;11802;53.160;8.214;2023-05-27T06:03:51;15.80;;;3.88;;
23266;SDS011;11802;53.160;8.214;2023-05-27T06:06:17;11.48;;;3.45;;
23266;SDS011;11802;53.160;8.214;2023-05-27T06:08:43;14.02;;;3.47;;
23266;SDS011;11802;53.160;8.214;2023-05-27T06:11:08;13.32;;;3.28;;
23266;SDS011;11802;53.160;8.214;2023-05-27T06:13:35;13.65;;;3.75;;
23266;SDS011;11802;53.160;8.214;2023-05-27T06:16:00;13.85;;;3.55;;
23266;SDS011;11802;53.160;8.214;2023-05-27T06:18:26;14.18;;;3.65;;
23266;SDS011;11802;53.160;8.214;2023-05-27T06:20:51;13.82;;;3.88;;
23266;SDS011;11802;53.160;8.214;2023-05-27T06:23:17;16.13;;;4.20;;
23266;SDS011;11802;53.160;8.214;2023-05-27T06:25:42;12.32;;;3.78;;
23266;SDS011;11802;53.160;8.214;2023-05-27T06:28:08;10.98;;;3.70;;
23266;SDS011;11802;53.160;8.214;2023-05-27T06:30:35;10.90;;;3.55;;
23266;SDS011;11802;53.160;8.214;2023-05-27T06:33:02;14.25;;;3.85;;
23266;SDS011;11802;53.160;8.214;2023-05-27T06:35:28;12.60;;;3.30;;
23266;SDS011;11802;53.160;8.214;2023-05-27T06:37:53;11.23;;;3.45;;
23266;SDS011;11802;53.160;8.214;2023-05-27T06:40:19;14.85;;;4.45;;
23266;SDS011;11802;53.160;8.214;2023-05-27T06:42:44;13.65;;;3.78;;
23266;SDS011;11802;53.160;8.214;2023-05-27T06:45:10;11.30;;;3.58;;
23266;SDS011;11802;53.160;8.214;2023-05-27T06:47:36;10.77;;;3.83;;
23266;SDS011;11802;53.160;8.214;2023-05-27T06:50:01;16.55;;;4.28;;
23266;SDS011;11802;53.160;8.214;2023-05-27T06:52:27;12.10;;;3.97;;
23266;SDS011;11802;53.160;8.214;2023-05-27T06:54:53;10.98;;;4.10;;
23266;SDS011;11802;53.160;8.214;2023-05-27T06:57:18;13.80;;;4.10;;
23266;SDS011;11802;53.160;8.214;2023-05-27T06:59:44;14.35;;;3.90;;
23266;SDS011;11802;53.160;8.214;2023-05-27T07:02:09;11.90;;;3.80;;
23266;SDS011;11802;53.160;8.214;2023-05-27T07:04:35;14.57;;;3.80;;
23266;SDS011;11802;53.160;8.214;2023-05-27T07:07:01;12.30;;;3.80;;
23266;SDS011;11802;53.160;8.214;2023-05-27T07:09:27;15.65;;;3.85;;
23266;SDS011;11802;53.160;8.214;2023-05-27T07:11:52;19.13;;;4.80;;
23266;SDS011;11802;53.160;8.214;2023-05-27T07:14:18;13.13;;;3.72;;
23266;SDS011;11802;53.160;8.214;2023-05-27T07:16:44;14.25;;;4.05;;
23266;SDS011;11802;53.160;8.214;2023-05-27T07:19:09;14.15;;;3.85;;
23266;SDS011;11802;53.160;8.214;2023-05-27T07:21:35;12.88;;;4.03;;
23266;SDS011;11802;53.160;8.214;2023-05-27T07:24:01;12.93;;;3.70;;
23266;SDS011;11802;53.160;8.214;2023-05-27T07:26:30;10.07;;;3.67;;
23266;SDS011;11802;53.160;8.214;2023-05-27T07:28:56;13.10;;;3.80;;
23266;SDS011;11802;53.160;8.214;2023-05-27T07:31:23;13.35;;;4.07;;
23266;SDS011;11802;53.160;8.214;2023-05-27T07:33:49;10.45;;;3.45;;
23266;SDS011;11802;53.160;8.214;2023-05-27T07:36:14;12.23;;;4.03;;
23266;SDS011;11802;53.160;8.214;2023-05-27T07:38:40;13.65;;;4.32;;
23266;SDS011;11802;53.160;8.214;2023-05-27T07:41:05;18.02;;;4.50;;
23266;SDS011;11802;53.160;8.214;2023-05-27T07:43:31;10.50;;;3.50;;
23266;SDS011;11802;53.160;8.214;2023-05-27T07:45:56;14.32;;;4.10;;
23266;SDS011;11802;53.160;8.214;2023-05-27T07:48:22;14.60;;;4.10;;
23266;SDS011;11802;53.160;8.214;2023-05-27T07:50:47;13.95;;;3.97;;
23266;SDS011;11802;53.160;8.214;2023-05-27T07:53:13;12.15;;;4.22;;
23266;SDS011;11802;53.160;8.214;2023-05-27T07:55:38;15.55;;;4.40;;
23266;SDS011;11802;53.160;8.214;2023-05-27T07:58:04;11.93;;;3.83;;
23266;SDS011;11802;53.160;8.214;2023-05-27T08:00:30;13.15;;;4.15;;
23266;SDS011;11802;53.160;8.214;2023-05-27T08:02:57;13.20;;;4.05;;
23266;SDS011;11802;53.160;8.214;2023-05-27T08:05:23;12.98;;;4.03;;
23266;SDS011;11802;53.160;8.214;2023-05-27T08:07:48;11.25;;;4.07;;
23266;SDS011;11802;53.160;8.214;2023-05-27T08:10:14;14.27;;;4.13;;
23266;SDS011;11802;53.160;8.214;2023-05-27T08:12:40;12.10;;;4.10;;
23266;SDS011;11802;53.160;8.214;2023-05-27T08:15:06;14.70;;;4.03;;
23266;SDS011;11802;53.160;8.214;2023-05-27T08:17:32;12.15;;;3.72;;
23266;SDS011;11802;53.160;8.214;2023-05-27T08:19:57;11.45;;;3.95;;
23266;SDS011;11802;53.160;8.214;2023-05-27T08:22:23;10.73;;;4.03;;
23266;SDS011;11802;53.160;8.214;2023-05-27T08:24:48;12.80;;;4.60;;
23266;SDS011;11802;53.160;8.214;2023-05-27T08:27:15;13.85;;;4.10;;
23266;SDS011;11802;53.160;8.214;2023-05-27T08:29:42;12.43;;;4.55;;
23266;SDS011;11802;53.160;8.214;2023-05-27T08:32:08;13.25;;;4.10;;
23266;SDS011;11802;53.160;8.214;2023-05-27T08:34:34;13.32;;;4.00;;
23266;SDS011;11802;53.160;8.214;2023-05-27T08:36:59;14.15;;;4.32;;
23266;SDS011;11802;53.160;8.214;2023-05-27T08:39:26;12.57;;;3.70;;
23266;SDS011;11802;53.160;8.214;2023-05-27T08:41:52;11.82;;;4.18;;
23266;SDS011;11802;53.160;8.214;2023-05-27T08:44:18;15.60;;;4.57;;
23266;SDS011;11802;53.160;8.214;2023-05-27T08:46:47;15.02;;;4.75;;
23266;SDS011;11802;53.160;8.214;2023-05-27T08:49:14;14.10;;;4.32;;
23266;SDS011;11802;53.160;8.214;2023-05-27T08:51:40;14.32;;;4.22;;
23266;SDS011;11802;53.160;8.214;2023-05-27T08:54:07;18.65;;;4.43;;
23266;SDS011;11802;53.160;8.214;2023-05-27T08:56:33;15.15;;;4.43;;
23266;SDS011;11802;53.160;8.214;2023-05-27T08:59:00;13.00;;;4.05;;
23266;SDS011;11802;53.160;8.214;2023-05-27T09:01:26;16.42;;;4.20;;
23266;SDS011;11802;53.160;8.214;2023-05-27T09:03:54;15.70;;;4.32;;
23266;SDS011;11802;53.160;8.214;2023-05-27T09:06:20;17.42;;;4.50;;
23266;SDS011;11802;53.160;8.214;2023-05-27T09:08:46;18.55;;;5.50;;
23266;SDS011;11802;53.160;8.214;2023-05-27T09:11:24;19.52;;;5.00;;
23266;SDS011;11802;53.160;8.214;2023-05-27T09:13:53;14.43;;;4.97;;
23266;SDS011;11802;53.160;8.214;2023-05-27T09:16:20;18.20;;;5.68;;
23266;SDS011;11802;53.160;8.214;2023-05-27T09:18:47;14.50;;;5.05;;
23266;SDS011;11802;53.160;8.214;2023-05-27T09:21:13;17.48;;;5.53;;
23266;SDS011;11802;53.160;8.214;2023-05-27T09:23:38;16.65;;;5.70;;
23266;SDS011;11802;53.160;8.214;2023-05-27T09:26:08;14.95;;;5.25;;
23266;SDS011;11802;53.160;8.214;2023-05-27T09:28:35;19.20;;;6.22;;
23266;SDS011;11802;53.160;8.214;2023-05-27T09:31:06;15.27;;;4.78;;
23266;SDS011;11802;53.160;8.214;2023-05-27T09:33:33;18.90;;;5.10;;
23266;SDS011;11802;53.160;8.214;2023-05-27T09:36:01;12.95;;;5.35;;
23266;SDS011;11802;53.160;8.214;2023-05-27T09:38:28;16.42;;;5.20;;
23266;SDS011;11802;53.160;8.214;2023-05-27T09:40:58;16.75;;;4.90;;
23266;SDS011;11802;53.160;8.214;2023-05-27T09:43:25;20.95;;;4.78;;
23266;SDS011;11802;53.160;8.214;2023-05-27T09:45:52;19.50;;;4.75;;
23266;SDS011;11802;53.160;8.214;2023-05-27T09:48:32;19.58;;;5.57;;
23266;SDS011;11802;53.160;8.214;2023-05-27T09:50:58;16.00;;;5.13;;
23266;SDS011;11802;53.160;8.214;2023-05-27T09:53:25;16.65;;;5.38;;
23266;SDS011;11802;53.160;8.214;2023-05-27T09:55:54;17.65;;;5.70;;
23266;SDS011;11802;53.160;8.214;2023-05-27T09:58:21;14.50;;;5.38;;
23266;SDS011;11802;53.160;8.214;2023-05-27T10:00:47;17.25;;;5.60;;
23266;SDS011;11802;53.160;8.214;2023-05-27T10:03:14;13.07;;;4.45;;
23266;SDS011;11802;53.160;8.214;2023-05-27T10:05:42;17.70;;;5.63;;
23266;SDS011;11802;53.160;8.214;2023-05-27T10:08:08;12.70;;;5.03;;
23266;SDS011;11802;53.160;8.214;2023-05-27T10:10:33;21.38;;;6.05;;
23266;SDS011;11802;53.160;8.214;2023-05-27T10:12:59;12.50;;;4.63;;
23266;SDS011;11802;53.160;8.214;2023-05-27T10:15:27;15.77;;;5.28;;
23266;SDS011;11802;53.160;8.214;2023-05-27T10:17:57;14.88;;;4.97;;
23266;SDS011;11802;53.160;8.214;2023-05-27T10:20:40;15.15;;;5.47;;
23266;SDS011;11802;53.160;8.214;2023-05-27T10:25:39;13.45;;;5.20;;
23266;SDS011;11802;53.160;8.214;2023-05-27T10:28:05;14.90;;;5.60;;
23266;SDS011;11802;53.160;8.214;2023-05-27T10:30:44;18.40;;;5.82;;
23266;SDS011;11802;53.160;8.214;2023-05-27T10:33:11;14.13;;;5.65;;
23266;SDS011;11802;53.160;8.214;2023-05-27T10:35:40;20.50;;;6.20;;
23266;SDS011;11802;53.160;8.214;2023-05-27T10:38:13;13.43;;;5.35;;
23266;SDS011;11802;53.160;8.214;2023-05-27T10:40:43;13.77;;;5.50;;
23266;SDS011;11802;53.160;8.214;2023-05-27T10:43:17;17.30;;;5.25;;
23266;SDS011;11802;53.160;8.214;2023-05-27T10:45:43;16.73;;;5.38;;
23266;SDS011;11802;53.160;8.214;2023-05-27T10:48:19;14.50;;;5.32;;
23266;SDS011;11802;53.160;8.214;2023-05-27T10:50:51;12.20;;;5.38;;
23266;SDS011;11802;53.160;8.214;2023-05-27T10:53:18;15.88;;;5.70;;
23266;SDS011;11802;53.160;8.214;2023-05-27T10:55:47;17.33;;;5.95;;
23266;SDS011;11802;53.160;8.214;2023-05-27T10:58:15;14.65;;;5.90;;
23266;SDS011;11802;53.160;8.214;2023-05-27T11:00:45;17.92;;;6.20;;
23266;SDS011;11802;53.160;8.214;2023-05-27T11:03:25;15.48;;;6.30;;
23266;SDS011;11802;53.160;8.214;2023-05-27T11:08:28;15.25;;;6.20;;
23266;SDS011;11802;53.160;8.214;2023-05-27T11:10:58;17.52;;;6.55;;
23266;SDS011;11802;53.160;8.214;2023-05-27T11:13:41;17.20;;;6.38;;
23266;SDS011;11802;53.160;8.214;2023-05-27T11:16:08;15.50;;;5.88;;
23266;SDS011;11802;53.160;8.214;2023-05-27T11:21:14;18.20;;;5.70;;
23266;SDS011;11802;53.160;8.214;2023-05-27T11:23:44;16.05;;;5.45;;
23266;SDS011;11802;53.160;8.214;2023-05-27T11:26:18;16.67;;;6.35;;
23266;SDS011;11802;53.160;8.214;2023-05-27T11:28:48;15.25;;;6.15;;
23266;SDS011;11802;53.160;8.214;2023-05-27T11:31:18;14.18;;;5.38;;
23266;SDS011;11802;53.160;8.214;2023-05-27T11:33:46;16.38;;;5.35;;
23266;SDS011;11802;53.160;8.214;2023-05-27T11:36:15;12.27;;;6.13;;
23266;SDS011;11802;53.160;8.214;2023-05-27T11:41:20;14.10;;;5.72;;
23266;SDS011;11802;53.160;8.214;2023-05-27T11:43:48;14.63;;;5.68;;
23266;SDS011;11802;53.160;8.214;2023-05-27T11:46:15;17.83;;;6.00;;
23266;SDS011;11802;53.160;8.214;2023-05-27T11:48:40;17.10;;;6.15;;
23266;SDS011;11802;53.160;8.214;2023-05-27T11:51:06;17.50;;;6.75;;
23266;SDS011;11802;53.160;8.214;2023-05-27T11:53:32;15.65;;;6.05;;
23266;SDS011;11802;53.160;8.214;2023-05-27T11:55:59;21.52;;;6.57;;
23266;SDS011;11802;53.160;8.214;2023-05-27T11:58:25;17.02;;;6.30;;
23266;SDS011;11802;53.160;8.214;2023-05-27T12:00:51;18.35;;;6.10;;
23266;SDS011;11802;53.160;8.214;2023-05-27T12:03:17;13.77;;;6.20;;
23266;SDS011;11802;53.160;8.214;2023-05-27T12:05:42;16.55;;;5.75;;
23266;SDS011;11802;53.160;8.214;2023-05-27T12:08:08;18.88;;;6.65;;
23266;SDS011;11802;53.160;8.214;2023-05-27T12:10:33;17.85;;;5.82;;
23266;SDS011;11802;53.160;8.214;2023-05-27T12:13:03;16.00;;;6.15;;
23266;SDS011;11802;53.160;8.214;2023-05-27T12:15:29;20.45;;;6.75;;
23266;SDS011;11802;53.160;8.214;2023-05-27T12:17:55;17.25;;;6.38;;
23266;SDS011;11802;53.160;8.214;2023-05-27T12:20:20;15.02;;;5.97;;
23266;SDS011;11802;53.160;8.214;2023-05-27T12:22:46;14.45;;;5.78;;
23266;SDS011;11802;53.160;8.214;2023-05-27T12:25:11;16.27;;;6.75;;
23266;SDS011;11802;53.160;8.214;2023-05-27T12:27:37;15.32;;;6.20;;
23266;SDS011;11802;53.160;8.214;2023-05-27T12:30:02;13.70;;;6.25;;
23266;SDS011;11802;53.160;8.214;2023-05-27T12:32:28;16.27;;;5.80;;
23266;SDS011;11802;53.160;8.214;2023-05-27T12:34:54;16.85;;;6.07;;
23266;SDS011;11802;53.160;8.214;2023-05-27T12:37:19;13.68;;;6.05;;
23266;SDS011;11802;53.160;8.214;2023-05-27T12:39:45;15.40;;;5.68;;
23266;SDS011;11802;53.160;8.214;2023-05-27T12:42:10;15.00;;;6.25;;
23266;SDS011;11802;53.160;8.214;2023-05-27T12:44:36;16.42;;;6.72;;
23266;SDS011;11802;53.160;8.214;2023-05-27T12:47:01;20.27;;;6.78;;
23266;SDS011;11802;53.160;8.214;2023-05-27T12:49:27;16.38;;;6.45;;
23266;SDS011;11802;53.160;8.214;2023-05-27T12:51:53;18.42;;;6.72;;
23266;SDS011;11802;53.160;8.214;2023-05-27T12:54:18;13.63;;;6.25;;
23266;SDS011;11802;53.160;8.214;2023-05-27T12:56:44;16.38;;;6.95;;
23266;SDS011;11802;53.160;8.214;2023-05-27T12:59:10;19.20;;;7.43;;
23266;SDS011;11802;53.160;8.214;2023-05-27T13:01:35;16.98;;;8.05;;
23266;SDS011;11802;53.160;8.214;2023-05-27T13:04:01;21.35;;;8.80;;
23266;SDS011;11802;53.160;8.214;2023-05-27T13:06:26;22.35;;;8.57;;
23266;SDS011;11802;53.160;8.214;2023-05-27T13:08:52;17.92;;;7.13;;
23266;SDS011;11802;53.160;8.214;2023-05-27T13:11:17;22.70;;;7.20;;
23266;SDS011;11802;53.160;8.214;2023-05-27T13:13:43;18.58;;;7.57;;
23266;SDS011;11802;53.160;8.214;2023-05-27T13:16:08;19.75;;;7.35;;
23266;SDS011;11802;53.160;8.214;2023-05-27T13:18:34;20.73;;;8.75;;
23266;SDS011;11802;53.160;8.214;2023-05-27T13:21:00;19.67;;;8.30;;
23266;SDS011;11802;53.160;8.214;2023-05-27T13:23:26;17.75;;;8.43;;
23266;SDS011;11802;53.160;8.214;2023-05-27T13:25:53;20.20;;;8.40;;
23266;SDS011;11802;53.160;8.214;2023-05-27T13:28:19;26.58;;;8.32;;
23266;SDS011;11802;53.160;8.214;2023-05-27T13:30:45;20.80;;;7.53;;
23266;SDS011;11802;53.160;8.214;2023-05-27T13:33:10;17.05;;;6.88;;
23266;SDS011;11802;53.160;8.214;2023-05-27T13:35:36;13.63;;;6.03;;
23266;SDS011;11802;53.160;8.214;2023-05-27T13:38:01;14.30;;;5.93;;
23266;SDS011;11802;53.160;8.214;2023-05-27T13:40:28;14.40;;;5.85;;
23266;SDS011;11802;53.160;8.214;2023-05-27T13:42:54;15.45;;;6.63;;
23266;SDS011;11802;53.160;8.214;2023-05-27T13:45:19;16.25;;;6.40;;
23266;SDS011;11802;53.160;8.214;2023-05-27T13:47:45;19.65;;;6.72;;
23266;SDS011;11802;53.160;8.214;2023-05-27T13:50:10;19.88;;;7.13;;
23266;SDS011;11802;53.160;8.214;2023-05-27T13:52:36;15.95;;;7.18;;
23266;SDS011;11802;53.160;8.214;2023-05-27T13:55:02;17.98;;;6.45;;
23266;SDS011;11802;53.160;8.214;2023-05-27T13:57:28;17.85;;;6.82;;
23266;SDS011;11802;53.160;8.214;2023-05-27T13:59:53;16.02;;;6.53;;
23266;SDS011;11802;53.160;8.214;2023-05-27T14:02:19;16.98;;;6.82;;
23266;SDS011;11802;53.160;8.214;2023-05-27T14:04:44;15.02;;;6.30;;
23266;SDS011;11802;53.160;8.214;2023-05-27T14:07:10;15.38;;;5.75;;
23266;SDS011;11802;53.160;8.214;2023-05-27T14:09:36;16.27;;;5.68;;
23266;SDS011;11802;53.160;8.214;2023-05-27T14:12:01;16.58;;;5.85;;
23266;SDS011;11802;53.160;8.214;2023-05-27T14:14:27;13.55;;;5.45;;
23266;SDS011;11802;53.160;8.214;2023-05-27T14:16:53;17.23;;;6.05;;
23266;SDS011;11802;53.160;8.214;2023-05-27T14:19:18;14.77;;;5.75;;
23266;SDS011;11802;53.160;8.214;2023-05-27T14:21:44;15.48;;;5.85;;
23266;SDS011;11802;53.160;8.214;2023-05-27T14:24:10;12.70;;;5.07;;
23266;SDS011;11802;53.160;8.214;2023-05-27T14:26:37;15.13;;;5.30;;
23266;SDS011;11802;53.160;8.214;2023-05-27T14:29:03;11.82;;;4.80;;
23266;SDS011;11802;53.160;8.214;2023-05-27T14:31:28;13.90;;;5.63;;
23266;SDS011;11802;53.160;8.214;2023-05-27T14:33:54;15.95;;;5.07;;
23266;SDS011;11802;53.160;8.214;2023-05-27T14:36:19;16.63;;;5.50;;
23266;SDS011;11802;53.160;8.214;2023-05-27T14:38:45;11.65;;;4.55;;
23266;SDS011;11802;53.160;8.214;2023-05-27T14:41:10;12.43;;;4.60;;
23266;SDS011;11802;53.160;8.214;2023-05-27T14:43:36;9.82;;;4.40;;